createdAt,value
2023-01-03T00:00:21.084Z,815.00
2023-01-03T00:01:21.047Z,808.00
2023-01-03T00:02:20.973Z,822.00
2023-01-03T00:03:20.942Z,821.00
2023-01-03T00:04:21.032Z,813.00
2023-01-03T00:05:20.921Z,804.00
2023-01-03T00:06:20.859Z,810.00
2023-01-03T00:07:20.864Z,822.00
2023-01-03T00:08:20.834Z,826.00
2023-01-03T00:09:20.837Z,785.00
2023-01-03T00:10:20.791Z,747.00
2023-01-03T00:11:29.380Z,701.00
2023-01-03T00:12:23.326Z,702.00
2023-01-03T00:13:21.991Z,657.00
2023-01-03T00:14:20.917Z,656.00
2023-01-03T00:15:20.948Z,664.00
2023-01-03T00:16:20.923Z,695.00
2023-01-03T00:17:20.931Z,701.00
2023-01-03T00:18:20.825Z,733.00
2023-01-03T00:19:20.837Z,726.00
2023-01-03T00:20:20.797Z,739.00
2023-01-03T00:21:20.801Z,729.00
2023-01-03T00:22:20.722Z,735.00
2023-01-03T00:23:20.732Z,733.00
2023-01-03T00:24:20.708Z,732.00
2023-01-03T00:25:20.701Z,716.00
2023-01-03T00:26:20.651Z,730.00
2023-01-03T00:27:20.634Z,710.00
2023-01-03T00:28:20.620Z,727.00
2023-01-03T00:29:20.612Z,711.00
2023-01-03T00:30:20.612Z,714.00
2023-01-03T00:31:20.638Z,715.00
2023-01-03T00:32:20.513Z,734.00
2023-01-03T00:33:20.502Z,735.00
2023-01-03T00:34:20.466Z,725.00
2023-01-03T00:35:20.452Z,737.00
2023-01-03T00:36:20.375Z,728.00
2023-01-03T00:37:20.437Z,745.00
2023-01-03T00:38:20.339Z,729.00
2023-01-03T00:39:20.364Z,739.00
2023-01-03T00:40:20.270Z,741.00
2023-01-03T00:41:20.291Z,739.00
2023-01-03T00:42:20.245Z,750.00
2023-01-03T00:43:20.236Z,735.00
2023-01-03T00:44:20.165Z,733.00
2023-01-03T00:45:21.756Z,750.00
2023-01-03T00:46:20.208Z,751.00
2023-01-03T00:47:20.127Z,750.00
2023-01-03T00:48:20.061Z,746.00
2023-01-03T00:49:20.078Z,751.00
2023-01-03T00:50:20.084Z,744.00
2023-01-03T00:51:20.061Z,747.00
2023-01-03T00:52:19.990Z,749.00
2023-01-03T00:53:19.977Z,742.00
2023-01-03T00:54:19.957Z,754.00
2023-01-03T00:55:20.073Z,748.00
2023-01-03T00:56:19.884Z,767.00
2023-01-03T00:57:19.893Z,740.00
2023-01-03T00:58:19.881Z,758.00
2023-01-03T00:59:19.879Z,762.00
2023-01-03T01:00:19.814Z,744.00
2023-01-03T01:01:19.918Z,750.00
2023-01-03T01:02:19.960Z,765.00
2023-01-03T01:03:19.929Z,756.00
2023-01-03T01:04:19.723Z,740.00
2023-01-03T01:05:19.744Z,745.00
2023-01-03T01:06:19.689Z,756.00
2023-01-03T01:07:19.693Z,759.00
2023-01-03T01:08:19.649Z,758.00
2023-01-03T01:09:19.672Z,764.00
2023-01-03T01:10:19.619Z,754.00
2023-01-03T01:11:19.633Z,767.00
2023-01-03T01:12:19.559Z,750.00
2023-01-03T01:13:19.591Z,761.00
2023-01-03T01:14:19.533Z,770.00
2023-01-03T01:15:19.545Z,771.00
2023-01-03T01:16:19.567Z,772.00
2023-01-03T01:17:22.794Z,773.00
2023-01-03T01:18:19.544Z,774.00
2023-01-03T01:19:19.434Z,776.00
2023-01-03T01:20:19.418Z,768.00
2023-01-03T01:21:19.414Z,777.00
2023-01-03T01:22:19.350Z,788.00
2023-01-03T01:23:19.366Z,791.00
2023-01-03T01:24:19.319Z,794.00
2023-01-03T01:25:19.322Z,796.00
2023-01-03T01:26:19.244Z,788.00
2023-01-03T01:27:19.273Z,796.00
2023-01-03T01:28:19.231Z,781.00
2023-01-03T01:29:19.229Z,785.00
2023-01-03T01:30:19.163Z,786.00
2023-01-03T01:31:19.220Z,792.00
2023-01-03T01:32:19.131Z,781.00
2023-01-03T01:33:19.146Z,776.00
2023-01-03T01:34:19.162Z,801.00
2023-01-03T01:35:19.104Z,796.00
2023-01-03T01:36:19.057Z,797.00
2023-01-03T01:37:19.081Z,800.00
2023-01-03T01:38:18.987Z,809.00
2023-01-03T01:39:19.132Z,795.00
2023-01-03T01:40:19.004Z,795.00
2023-01-03T01:41:18.962Z,803.00
2023-01-03T01:42:20.584Z,792.00
2023-01-03T01:43:18.936Z,793.00
2023-01-03T01:44:18.865Z,796.00
2023-01-03T01:45:18.913Z,789.00
2023-01-03T01:46:18.914Z,801.00
2023-01-03T01:47:18.893Z,803.00
2023-01-03T01:48:18.923Z,799.00
2023-01-03T01:49:18.834Z,799.00
2023-01-03T01:50:18.782Z,801.00
2023-01-03T01:51:18.789Z,776.00
2023-01-03T01:52:18.764Z,805.00
2023-01-03T01:53:18.754Z,799.00
2023-01-03T01:54:18.691Z,792.00
2023-01-03T01:55:18.707Z,809.00
2023-01-03T01:56:18.655Z,805.00
2023-01-03T01:57:18.681Z,793.00
2023-01-03T01:58:18.599Z,798.00
2023-01-03T01:59:18.659Z,805.00
2023-01-03T02:00:18.568Z,795.00
2023-01-03T02:01:18.693Z,800.00
2023-01-03T02:02:18.607Z,798.00
2023-01-03T02:03:18.529Z,799.00
2023-01-03T02:04:18.455Z,792.00
2023-01-03T02:05:18.481Z,796.00
2023-01-03T02:06:18.436Z,804.00
2023-01-03T02:07:18.458Z,807.00
2023-01-03T02:08:18.370Z,786.00
2023-01-03T02:09:18.373Z,802.00
2023-01-03T02:10:18.354Z,808.00
2023-01-03T02:11:18.365Z,803.00
2023-01-03T02:12:18.344Z,811.00
2023-01-03T02:13:18.288Z,813.00
2023-01-03T02:14:18.267Z,785.00
2023-01-03T02:15:18.237Z,813.00
2023-01-03T02:16:18.306Z,802.00
2023-01-03T02:17:18.199Z,805.00
2023-01-03T02:18:18.140Z,804.00
2023-01-03T02:19:18.145Z,792.00
2023-01-03T02:20:18.091Z,806.00
2023-01-03T02:21:20.129Z,797.00
2023-01-03T02:22:18.028Z,798.00
2023-01-03T02:23:18.031Z,799.00
2023-01-03T02:24:18.005Z,800.00
2023-01-03T02:25:17.990Z,805.00
2023-01-03T02:26:17.926Z,807.00
2023-01-03T02:27:17.915Z,808.00
2023-01-03T02:28:17.906Z,812.00
2023-01-03T02:29:17.890Z,805.00
2023-01-03T02:30:17.818Z,806.00
2023-01-03T02:31:17.843Z,802.00
2023-01-03T02:32:17.795Z,806.00
2023-01-03T02:33:17.794Z,808.00
2023-01-03T02:34:17.735Z,806.00
2023-01-03T02:35:17.709Z,805.00
2023-01-03T02:36:17.693Z,793.00
2023-01-03T02:37:17.663Z,807.00
2023-01-03T02:38:17.630Z,792.00
2023-01-03T02:39:23.393Z,810.00
2023-01-03T02:40:18.632Z,811.00
2023-01-03T02:41:17.583Z,811.00
2023-01-03T02:42:17.585Z,798.00
2023-01-03T02:43:17.501Z,812.00
2023-01-03T02:44:17.512Z,804.00
2023-01-03T02:45:17.486Z,815.00
2023-01-03T02:46:17.551Z,812.00
2023-01-03T02:47:17.444Z,797.00
2023-01-03T02:48:17.468Z,804.00
2023-01-03T02:49:17.435Z,803.00
2023-01-03T02:50:17.427Z,807.00
2023-01-03T02:51:17.363Z,794.00
2023-01-03T02:52:17.404Z,796.00
2023-01-03T02:53:17.327Z,807.00
2023-01-03T02:54:17.407Z,810.00
2023-01-03T02:55:17.309Z,796.00
2023-01-03T02:56:17.322Z,802.00
2023-01-03T02:57:17.276Z,806.00
2023-01-03T02:58:17.306Z,808.00
2023-01-03T02:59:17.242Z,806.00
2023-01-03T03:00:17.216Z,789.00
2023-01-03T03:01:17.280Z,784.00
2023-01-03T03:02:17.359Z,794.00
2023-01-03T03:03:17.185Z,798.00
2023-01-03T03:04:17.123Z,798.00
2023-01-03T03:05:17.091Z,802.00
2023-01-03T03:06:17.094Z,803.00
2023-01-03T03:07:17.034Z,796.00
2023-01-03T03:08:17.058Z,803.00
2023-01-03T03:09:16.996Z,793.00
2023-01-03T03:10:17.020Z,804.00
2023-01-03T03:11:16.981Z,804.00
2023-01-03T03:12:16.985Z,801.00
2023-01-03T03:13:16.947Z,806.00
2023-01-03T03:14:16.947Z,791.00
2023-01-03T03:15:16.912Z,791.00
2023-01-03T03:16:16.965Z,813.00
2023-01-03T03:17:16.867Z,794.00
2023-01-03T03:18:16.891Z,792.00
2023-01-03T03:19:16.804Z,810.00
2023-01-03T03:20:16.815Z,796.00
2023-01-03T03:21:16.769Z,800.00
2023-01-03T03:22:16.752Z,806.00
2023-01-03T03:23:16.721Z,801.00
2023-01-03T03:24:16.755Z,812.00
2023-01-03T03:25:16.677Z,807.00
2023-01-03T03:26:16.697Z,795.00
2023-01-03T03:27:16.669Z,798.00
2023-01-03T03:28:16.689Z,799.00
2023-01-03T03:29:16.613Z,796.00
2023-01-03T03:30:16.587Z,802.00
2023-01-03T03:31:16.614Z,796.00
2023-01-03T03:32:16.581Z,795.00
2023-01-03T03:33:16.499Z,799.00
2023-01-03T03:34:16.523Z,789.00
2023-01-03T03:35:16.483Z,793.00
2023-01-03T03:36:16.466Z,789.00
2023-01-03T03:37:16.417Z,797.00
2023-01-03T03:38:16.440Z,809.00
2023-01-03T03:39:16.368Z,796.00
2023-01-03T03:40:16.413Z,800.00
2023-01-03T03:41:16.336Z,799.00
2023-01-03T03:42:16.350Z,794.00
2023-01-03T03:43:16.256Z,798.00
2023-01-03T03:44:16.289Z,788.00
2023-01-03T03:45:16.258Z,800.00
2023-01-03T03:46:16.274Z,805.00
2023-01-03T03:47:16.285Z,796.00
2023-01-03T03:48:16.199Z,789.00
2023-01-03T03:49:16.138Z,791.00
2023-01-03T03:50:16.154Z,782.00
2023-01-03T03:51:16.123Z,792.00
2023-01-03T03:52:16.149Z,808.00
2023-01-03T03:53:16.064Z,797.00
2023-01-03T03:54:16.099Z,798.00
2023-01-03T03:55:16.041Z,793.00
2023-01-03T03:56:16.047Z,796.00
2023-01-03T03:57:15.971Z,807.00
2023-01-03T03:58:16.049Z,795.00
2023-01-03T03:59:15.958Z,804.00
2023-01-03T04:00:15.951Z,789.00
2023-01-03T04:01:15.944Z,808.00
2023-01-03T04:02:16.034Z,785.00
2023-01-03T04:03:16.099Z,796.00
2023-01-03T04:04:15.892Z,791.00
2023-01-03T04:05:15.845Z,788.00
2023-01-03T04:06:15.852Z,786.00
2023-01-03T04:07:15.788Z,790.00
2023-01-03T04:08:15.773Z,786.00
2023-01-03T04:09:15.736Z,793.00
2023-01-03T04:10:15.749Z,786.00
2023-01-03T04:11:15.703Z,788.00
2023-01-03T04:12:15.719Z,782.00
2023-01-03T04:13:15.657Z,775.00
2023-01-03T04:14:15.790Z,794.00
2023-01-03T04:15:15.634Z,798.00
2023-01-03T04:16:15.726Z,792.00
2023-01-03T04:17:15.563Z,789.00
2023-01-03T04:18:15.622Z,790.00
2023-01-03T04:19:15.584Z,791.00
2023-01-03T04:20:15.574Z,787.00
2023-01-03T04:21:20.456Z,785.00
2023-01-03T04:22:16.524Z,786.00
2023-01-03T04:23:15.463Z,787.00
2023-01-03T04:24:15.548Z,787.00
2023-01-03T04:25:15.428Z,793.00
2023-01-03T04:26:15.441Z,789.00
2023-01-03T04:27:15.394Z,801.00
2023-01-03T04:28:15.424Z,783.00
2023-01-03T04:29:15.374Z,783.00
2023-01-03T04:30:15.364Z,789.00
2023-01-03T04:31:15.360Z,796.00
2023-01-03T04:32:15.441Z,786.00
2023-01-03T04:33:15.289Z,789.00
2023-01-03T04:34:15.296Z,790.00
2023-01-03T04:35:15.226Z,791.00
2023-01-03T04:36:15.266Z,795.00
2023-01-03T04:37:15.202Z,782.00
2023-01-03T04:38:15.210Z,779.00
2023-01-03T04:39:15.163Z,778.00
2023-01-03T04:40:15.172Z,786.00
2023-01-03T04:41:15.141Z,776.00
2023-01-03T04:42:15.116Z,776.00
2023-01-03T04:43:15.034Z,778.00
2023-01-03T04:44:15.095Z,783.00
2023-01-03T04:45:15.055Z,790.00
2023-01-03T04:46:15.187Z,791.00
2023-01-03T04:47:14.990Z,779.00
2023-01-03T04:48:14.988Z,785.00
2023-01-03T04:49:14.957Z,791.00
2023-01-03T04:50:14.946Z,778.00
2023-01-03T04:51:14.903Z,780.00
2023-01-03T04:52:14.931Z,778.00
2023-01-03T04:53:14.850Z,775.00
2023-01-03T04:54:14.887Z,779.00
2023-01-03T04:55:14.861Z,781.00
2023-01-03T04:56:14.890Z,785.00
2023-01-03T04:57:14.798Z,788.00
2023-01-03T04:58:14.851Z,779.00
2023-01-03T04:59:14.788Z,780.00
2023-01-03T05:00:14.810Z,789.00
2023-01-03T05:01:14.828Z,772.00
2023-01-03T05:02:15.060Z,781.00
2023-01-03T05:03:14.736Z,777.00
2023-01-03T05:04:14.784Z,791.00
2023-01-03T05:05:14.667Z,780.00
2023-01-03T05:06:14.684Z,784.00
2023-01-03T05:07:14.634Z,772.00
2023-01-03T05:08:14.668Z,783.00
2023-01-03T05:09:14.619Z,778.00
2023-01-03T05:10:14.646Z,784.00
2023-01-03T05:11:14.596Z,796.00
2023-01-03T05:12:14.574Z,771.00
2023-01-03T05:13:14.549Z,783.00
2023-01-03T05:14:14.941Z,781.00
2023-01-03T05:15:14.533Z,781.00
2023-01-03T05:16:14.681Z,771.00
2023-01-03T05:17:14.476Z,779.00
2023-01-03T05:18:14.524Z,776.00
2023-01-03T05:19:14.665Z,781.00
2023-01-03T05:20:14.473Z,775.00
2023-01-03T05:21:14.412Z,789.00
2023-01-03T05:22:14.463Z,784.00
2023-01-03T05:23:14.415Z,773.00
2023-01-03T05:24:14.440Z,778.00
2023-01-03T05:25:14.358Z,773.00
2023-01-03T05:26:14.373Z,780.00
2023-01-03T05:27:14.336Z,784.00
2023-01-03T05:28:17.511Z,775.00
2023-01-03T05:29:14.285Z,775.00
2023-01-03T05:30:14.317Z,766.00
2023-01-03T05:31:14.239Z,779.00
2023-01-03T05:32:14.368Z,781.00
2023-01-03T05:33:14.244Z,777.00
2023-01-03T05:34:14.240Z,792.00
2023-01-03T05:35:14.195Z,784.00
2023-01-03T05:36:16.304Z,768.00
2023-01-03T05:37:14.181Z,769.00
2023-01-03T05:38:14.225Z,771.00
2023-01-03T05:39:14.163Z,770.00
2023-01-03T05:40:14.182Z,773.00
2023-01-03T05:41:14.200Z,776.00
2023-01-03T05:42:14.172Z,778.00
2023-01-03T05:43:14.119Z,777.00
2023-01-03T05:44:14.182Z,776.00
2023-01-03T05:45:14.170Z,766.00
2023-01-03T05:46:14.151Z,765.00
2023-01-03T05:47:14.045Z,769.00
2023-01-03T05:48:14.094Z,773.00
2023-01-03T05:49:14.043Z,779.00
2023-01-03T05:50:14.009Z,771.00
2023-01-03T05:51:13.969Z,774.00
2023-01-03T05:52:14.006Z,772.00
2023-01-03T05:53:13.935Z,783.00
2023-01-03T05:54:13.954Z,780.00
2023-01-03T05:55:13.898Z,769.00
2023-01-03T05:56:13.905Z,770.00
2023-01-03T05:57:13.846Z,778.00
2023-01-03T05:58:13.921Z,773.00
2023-01-03T05:59:13.879Z,765.00
2023-01-03T06:00:13.886Z,766.00
2023-01-03T06:01:13.813Z,756.00
2023-01-03T06:02:13.905Z,761.00
2023-01-03T06:03:13.793Z,766.00
2023-01-03T06:04:13.836Z,768.00
2023-01-03T06:05:13.709Z,775.00
2023-01-03T06:06:13.754Z,773.00
2023-01-03T06:07:13.700Z,770.00
2023-01-03T06:08:13.699Z,766.00
2023-01-03T06:09:13.650Z,776.00
2023-01-03T06:10:13.671Z,752.00
2023-01-03T06:11:13.632Z,764.00
2023-01-03T06:12:13.618Z,752.00
2023-01-03T06:13:13.570Z,754.00
2023-01-03T06:14:13.595Z,763.00
2023-01-03T06:15:13.514Z,750.00
2023-01-03T06:16:13.552Z,745.00
2023-01-03T06:17:13.544Z,754.00
2023-01-03T06:18:13.473Z,756.00
2023-01-03T06:19:13.406Z,741.00
2023-01-03T06:20:13.509Z,760.00
2023-01-03T06:21:13.339Z,744.00
2023-01-03T06:22:13.375Z,745.00
2023-01-03T06:23:13.308Z,745.00
2023-01-03T06:24:13.296Z,745.00
2023-01-03T06:25:13.239Z,765.00
2023-01-03T06:26:13.270Z,750.00
2023-01-03T06:27:13.183Z,758.00
2023-01-03T06:28:13.185Z,756.00
2023-01-03T06:29:13.138Z,746.00
2023-01-03T06:30:13.088Z,756.00
2023-01-03T06:31:13.115Z,752.00
2023-01-03T06:32:13.040Z,758.00
2023-01-03T06:33:13.012Z,753.00
2023-01-03T06:34:12.971Z,748.00
2023-01-03T06:35:12.952Z,751.00
2023-01-03T06:36:12.908Z,743.00
2023-01-03T06:37:12.866Z,753.00
2023-01-03T06:38:12.847Z,739.00
2023-01-03T06:39:12.837Z,760.00
2023-01-03T06:40:12.787Z,741.00
2023-01-03T06:41:12.785Z,748.00
2023-01-03T06:42:12.721Z,745.00
2023-01-03T06:43:12.705Z,758.00
2023-01-03T06:44:12.698Z,752.00
2023-01-03T06:45:12.653Z,749.00
2023-01-03T06:46:12.700Z,750.00
2023-01-03T06:47:12.596Z,750.00
2023-01-03T06:48:12.622Z,746.00
2023-01-03T06:49:12.550Z,751.00
2023-01-03T06:50:12.577Z,743.00
2023-01-03T06:51:12.503Z,739.00
2023-01-03T06:52:12.500Z,737.00
2023-01-03T06:53:12.465Z,742.00
2023-01-03T06:54:12.470Z,736.00
2023-01-03T06:55:12.394Z,737.00
2023-01-03T06:56:12.374Z,738.00
2023-01-03T06:57:26.535Z,740.00
2023-01-03T06:58:13.330Z,741.00
2023-01-03T06:59:12.274Z,741.00
2023-01-03T07:00:12.285Z,742.00
2023-01-03T07:01:12.337Z,738.00
2023-01-03T07:02:12.408Z,739.00
2023-01-03T07:03:12.256Z,753.00
2023-01-03T07:04:12.270Z,733.00
2023-01-03T07:05:12.159Z,734.00
2023-01-03T07:06:12.175Z,727.00
2023-01-03T07:07:12.149Z,737.00
2023-01-03T07:08:12.115Z,739.00
2023-01-03T07:09:12.103Z,735.00
2023-01-03T07:10:12.099Z,726.00
2023-01-03T07:11:12.082Z,730.00
2023-01-03T07:12:12.032Z,724.00
2023-01-03T07:13:12.026Z,728.00
2023-01-03T07:14:12.010Z,732.00
2023-01-03T07:15:11.962Z,733.00
2023-01-03T07:16:11.938Z,709.00
2023-01-03T07:17:11.882Z,729.00
2023-01-03T07:18:11.872Z,724.00
2023-01-03T07:19:11.847Z,731.00
2023-01-03T07:20:11.817Z,708.00
2023-01-03T07:21:11.763Z,718.00
2023-01-03T07:22:11.754Z,727.00
2023-01-03T07:23:11.715Z,719.00
2023-01-03T07:24:11.716Z,721.00
2023-01-03T07:25:11.653Z,713.00
2023-01-03T07:26:11.639Z,721.00
2023-01-03T07:27:11.590Z,717.00
2023-01-03T07:28:11.581Z,720.00
2023-01-03T07:29:11.517Z,724.00
2023-01-03T07:30:11.504Z,717.00
2023-01-03T07:31:11.510Z,721.00
2023-01-03T07:32:11.453Z,721.00
2023-01-03T07:33:11.400Z,729.00
2023-01-03T07:34:11.359Z,715.00
2023-01-03T07:35:11.304Z,721.00
2023-01-03T07:36:12.221Z,712.00
2023-01-03T07:37:11.260Z,720.00
2023-01-03T07:38:11.245Z,717.00
2023-01-03T07:39:11.219Z,721.00
2023-01-03T07:40:11.191Z,729.00
2023-01-03T07:41:11.163Z,714.00
2023-01-03T07:42:11.123Z,708.00
2023-01-03T07:43:11.086Z,719.00
2023-01-03T07:44:11.092Z,706.00
2023-01-03T07:45:11.075Z,709.00
2023-01-03T07:46:11.069Z,711.00
2023-01-03T07:47:10.959Z,718.00
2023-01-03T07:48:10.990Z,717.00
2023-01-03T07:49:12.255Z,707.00
2023-01-03T07:50:10.893Z,702.00
2023-01-03T07:51:10.855Z,714.00
2023-01-03T07:52:10.838Z,696.00
2023-01-03T07:53:10.811Z,725.00
2023-01-03T07:54:10.809Z,701.00
2023-01-03T07:55:10.767Z,711.00
2023-01-03T07:56:13.230Z,703.00
2023-01-03T07:57:10.699Z,707.00
2023-01-03T07:58:10.672Z,692.00
2023-01-03T07:59:10.668Z,719.00
2023-01-03T08:00:10.631Z,693.00
2023-01-03T08:01:10.696Z,696.00
2023-01-03T08:02:10.722Z,689.00
2023-01-03T08:03:11.584Z,684.00
2023-01-03T08:04:10.589Z,699.00
2023-01-03T08:05:10.566Z,701.00
2023-01-03T08:06:10.492Z,694.00
2023-01-03T08:07:10.438Z,707.00
2023-01-03T08:08:10.412Z,697.00
2023-01-03T08:09:10.393Z,696.00
2023-01-03T08:10:10.421Z,693.00
2023-01-03T08:11:10.369Z,696.00
2023-01-03T08:12:10.324Z,681.00
2023-01-03T08:13:10.289Z,689.00
2023-01-03T08:14:10.304Z,697.00
2023-01-03T08:15:10.241Z,697.00
2023-01-03T08:16:10.291Z,690.00
2023-01-03T08:17:10.220Z,691.00
2023-01-03T08:18:10.181Z,690.00
2023-01-03T08:19:10.160Z,682.00
2023-01-03T08:20:10.129Z,679.00
2023-01-03T08:21:10.100Z,685.00
2023-01-03T08:22:10.097Z,684.00
2023-01-03T08:23:10.068Z,672.00
2023-01-03T08:24:10.040Z,671.00
2023-01-03T08:25:09.995Z,679.00
2023-01-03T08:26:09.986Z,685.00
2023-01-03T08:27:09.956Z,683.00
2023-01-03T08:28:09.953Z,687.00
2023-01-03T08:29:09.902Z,690.00
2023-01-03T08:30:09.894Z,684.00
2023-01-03T08:31:09.909Z,676.00
2023-01-03T08:32:09.860Z,667.00
2023-01-03T08:33:09.812Z,688.00
2023-01-03T08:34:16.133Z,666.00
2023-01-03T08:35:10.800Z,668.00
2023-01-03T08:36:09.736Z,671.00
2023-01-03T08:37:09.765Z,671.00
2023-01-03T08:38:09.672Z,676.00
2023-01-03T08:39:09.670Z,685.00
2023-01-03T08:40:09.628Z,676.00
2023-01-03T08:41:09.632Z,687.00
2023-01-03T08:42:09.544Z,680.00
2023-01-03T08:43:09.551Z,674.00
2023-01-03T08:44:09.508Z,680.00
2023-01-03T08:45:09.511Z,686.00
2023-01-03T08:46:09.482Z,676.00
2023-01-03T08:47:09.483Z,688.00
2023-01-03T08:48:09.433Z,677.00
2023-01-03T08:49:09.440Z,690.00
2023-01-03T08:50:09.359Z,682.00
2023-01-03T08:51:09.381Z,679.00
2023-01-03T08:52:09.351Z,682.00
2023-01-03T08:53:09.325Z,677.00
2023-01-03T08:54:09.266Z,690.00
2023-01-03T08:55:09.260Z,672.00
2023-01-03T08:56:09.204Z,687.00
2023-01-03T08:57:09.220Z,684.00
2023-01-03T08:58:09.164Z,685.00
2023-01-03T08:59:09.192Z,673.00
2023-01-03T09:00:09.097Z,674.00
2023-01-03T09:01:09.167Z,668.00
2023-01-03T09:02:09.275Z,683.00
2023-01-03T09:03:09.415Z,670.00
2023-01-03T09:04:09.111Z,676.00
2023-01-03T09:05:09.023Z,659.00
2023-01-03T09:06:08.938Z,671.00
2023-01-03T09:07:08.957Z,668.00
2023-01-03T09:08:08.947Z,668.00
2023-01-03T09:09:08.936Z,664.00
2023-01-03T09:10:08.852Z,669.00
2023-01-03T09:11:08.869Z,671.00
2023-01-03T09:12:08.864Z,672.00
2023-01-03T09:13:08.839Z,668.00
2023-01-03T09:14:08.750Z,682.00
2023-01-03T09:15:08.795Z,675.00
2023-01-03T09:16:08.778Z,672.00
2023-01-03T09:17:08.739Z,672.00
2023-01-03T09:18:08.688Z,678.00
2023-01-03T09:19:08.680Z,673.00
2023-01-03T09:20:08.605Z,683.00
2023-01-03T09:21:08.629Z,666.00
2023-01-03T09:22:08.568Z,674.00
2023-01-03T09:23:08.627Z,683.00
2023-01-03T09:24:08.540Z,683.00
2023-01-03T09:25:08.523Z,677.00
2023-01-03T09:26:08.502Z,684.00
2023-01-03T09:27:08.513Z,681.00
2023-01-03T09:28:08.449Z,678.00
2023-01-03T09:29:08.457Z,687.00
2023-01-03T09:30:08.407Z,689.00
2023-01-03T09:31:08.497Z,688.00
2023-01-03T09:32:08.389Z,683.00
2023-01-03T09:33:08.353Z,684.00
2023-01-03T09:34:08.347Z,685.00
2023-01-03T09:35:08.321Z,682.00
2023-01-03T09:36:08.245Z,665.00
2023-01-03T09:37:08.299Z,672.00
2023-01-03T09:38:08.238Z,677.00
2023-01-03T09:39:08.252Z,679.00
2023-01-03T09:40:08.224Z,687.00
2023-01-03T09:41:08.189Z,698.00
2023-01-03T09:42:08.134Z,698.00
2023-01-03T09:43:08.142Z,705.00
2023-01-03T09:44:08.086Z,686.00
2023-01-03T09:45:08.131Z,696.00
2023-01-03T09:46:08.018Z,684.00
2023-01-03T09:47:08.083Z,673.00
2023-01-03T09:48:07.994Z,673.00
2023-01-03T09:49:08.037Z,675.00
2023-01-03T09:51:29.738Z,680.00
2023-01-03T09:52:08.911Z,681.00
2023-01-03T09:53:07.921Z,683.00
2023-01-03T09:54:07.882Z,685.00
2023-01-03T09:55:07.863Z,687.00
2023-01-03T09:56:07.833Z,693.00
2023-01-03T09:57:07.853Z,686.00
2023-01-03T09:58:07.774Z,692.00
2023-01-03T09:59:07.780Z,673.00
2023-01-03T10:00:07.736Z,669.00
2023-01-03T10:01:07.903Z,688.00
2023-01-03T10:02:07.830Z,674.00
2023-01-03T10:03:07.790Z,671.00
2023-01-03T10:04:07.609Z,672.00
2023-01-03T10:05:07.630Z,673.00
2023-01-03T10:06:07.559Z,695.00
2023-01-03T10:07:07.564Z,676.00
2023-01-03T10:08:07.506Z,679.00
2023-01-03T10:09:07.531Z,672.00
2023-01-03T10:10:13.949Z,679.00
2023-01-03T10:11:08.537Z,681.00
2023-01-03T10:12:07.402Z,682.00
2023-01-03T10:13:07.421Z,680.00
2023-01-03T10:14:07.334Z,687.00
2023-01-03T10:15:07.388Z,687.00
2023-01-03T10:16:07.304Z,683.00
2023-01-03T10:17:07.375Z,675.00
2023-01-03T10:18:07.224Z,669.00
2023-01-03T10:19:07.255Z,691.00
2023-01-03T10:20:07.186Z,681.00
2023-01-03T10:21:07.210Z,684.00
2023-01-03T10:22:07.172Z,682.00
2023-01-03T10:23:07.160Z,696.00
2023-01-03T10:24:07.076Z,690.00
2023-01-03T10:25:07.137Z,685.00
2023-01-03T10:26:07.071Z,686.00
2023-01-03T10:27:07.089Z,690.00
2023-01-03T10:28:07.020Z,676.00
2023-01-03T10:29:07.010Z,672.00
2023-01-03T10:30:06.961Z,691.00
2023-01-03T10:31:08.373Z,676.00
2023-01-03T10:32:06.965Z,687.00
2023-01-03T10:33:06.921Z,674.00
2023-01-03T10:34:06.877Z,691.00
2023-01-03T10:35:06.883Z,666.00
2023-01-03T10:36:06.810Z,665.00
2023-01-03T10:37:06.815Z,682.00
2023-01-03T10:38:06.797Z,679.00
2023-01-03T10:39:06.797Z,696.00
2023-01-03T10:40:06.740Z,689.00
2023-01-03T10:41:06.769Z,680.00
2023-01-03T10:42:06.706Z,683.00
2023-01-03T10:43:06.717Z,684.00
2023-01-03T10:44:06.667Z,680.00
2023-01-03T10:45:06.650Z,693.00
2023-01-03T10:46:06.717Z,681.00
2023-01-03T10:47:06.602Z,690.00
2023-01-03T10:48:06.575Z,689.00
2023-01-03T10:50:07.593Z,678.00
2023-01-03T10:51:06.485Z,679.00
2023-01-03T10:52:06.547Z,681.00
2023-01-03T10:53:06.444Z,689.00
2023-01-03T10:54:06.459Z,679.00
2023-01-03T10:55:06.433Z,679.00
2023-01-03T10:56:06.393Z,690.00
2023-01-03T10:57:06.377Z,686.00
2023-01-03T10:58:06.351Z,679.00
2023-01-03T10:59:06.304Z,680.00
2023-01-03T11:00:06.289Z,673.00
2023-01-03T11:01:06.309Z,677.00
2023-01-03T11:02:06.495Z,689.00
2023-01-03T11:03:06.406Z,680.00
2023-01-03T11:04:06.176Z,668.00
2023-01-03T11:05:06.139Z,683.00
2023-01-03T11:06:06.154Z,675.00
2023-01-03T11:07:06.077Z,669.00
2023-01-03T11:08:06.072Z,683.00
2023-01-03T11:09:06.015Z,682.00
2023-01-03T11:10:06.051Z,673.00
2023-01-03T11:11:06.002Z,682.00
2023-01-03T11:12:06.026Z,694.00
2023-01-03T11:13:05.912Z,679.00
2023-01-03T11:14:05.966Z,681.00
2023-01-03T11:15:05.902Z,695.00
2023-01-03T11:16:05.921Z,691.00
2023-01-03T11:17:05.997Z,686.00
2023-01-03T11:18:05.964Z,686.00
2023-01-03T11:19:05.809Z,694.00
2023-01-03T11:20:05.843Z,695.00
2023-01-03T11:21:05.746Z,694.00
2023-01-03T11:22:05.779Z,689.00
2023-01-03T11:23:05.703Z,685.00
2023-01-03T11:24:05.741Z,687.00
2023-01-03T11:25:05.656Z,694.00
2023-01-03T11:26:05.668Z,687.00
2023-01-03T11:27:05.650Z,688.00
2023-01-03T11:28:09.215Z,675.00
2023-01-03T11:29:06.595Z,677.00
2023-01-03T11:30:05.566Z,680.00
2023-01-03T11:31:05.563Z,682.00
2023-01-03T11:32:05.603Z,686.00
2023-01-03T11:33:05.537Z,676.00
2023-01-03T11:34:05.463Z,696.00
2023-01-03T11:35:22.786Z,691.00
2023-01-03T11:36:06.497Z,692.00
2023-01-03T11:37:05.402Z,693.00
2023-01-03T11:38:05.437Z,698.00
2023-01-03T11:39:08.638Z,700.00
2023-01-03T11:40:06.375Z,693.00
2023-01-03T11:41:05.346Z,698.00
2023-01-03T11:42:05.361Z,699.00
2023-01-03T11:43:05.267Z,709.00
2023-01-03T11:44:05.319Z,710.00
2023-01-03T11:45:05.266Z,730.00
2023-01-03T11:46:05.273Z,711.00
2023-01-03T11:47:05.229Z,724.00
2023-01-03T11:48:05.204Z,709.00
2023-01-03T11:49:05.154Z,723.00
2023-01-03T11:50:05.179Z,726.00
2023-01-03T11:51:05.124Z,739.00
2023-01-03T11:52:05.129Z,737.00
2023-01-03T11:53:05.077Z,725.00
2023-01-03T11:54:05.134Z,739.00
2023-01-03T11:55:05.176Z,732.00
2023-01-03T11:56:05.068Z,741.00
2023-01-03T11:57:04.995Z,739.00
2023-01-03T11:58:05.011Z,731.00
2023-01-03T11:59:04.985Z,734.00
2023-01-03T12:00:04.989Z,751.00
2023-01-03T12:01:04.908Z,732.00
2023-01-03T12:02:05.126Z,752.00
2023-01-03T12:03:05.121Z,750.00
2023-01-03T12:04:04.973Z,750.00
2023-01-03T12:05:04.835Z,743.00
2023-01-03T12:06:04.880Z,747.00
2023-01-03T12:07:45.182Z,745.00
2023-01-03T12:08:05.829Z,746.00
2023-01-03T12:09:04.758Z,747.00
2023-01-03T12:10:04.796Z,750.00
2023-01-03T12:11:04.728Z,754.00
2023-01-03T12:12:11.761Z,760.00
2023-01-03T12:13:04.768Z,747.00
2023-01-03T12:14:04.708Z,749.00
2023-01-03T12:15:04.662Z,749.00
2023-01-03T12:16:04.845Z,751.00
2023-01-03T12:17:04.610Z,736.00
2023-01-03T12:18:04.638Z,745.00
2023-01-03T12:19:11.687Z,746.00
2023-01-03T12:20:05.574Z,747.00
2023-01-03T12:21:04.523Z,750.00
2023-01-03T12:22:04.558Z,750.00
2023-01-03T12:23:04.500Z,760.00
2023-01-03T12:24:04.482Z,769.00
2023-01-03T12:25:05.653Z,765.00
2023-01-03T12:26:04.488Z,771.00
2023-01-03T12:27:04.410Z,766.00
2023-01-03T12:28:04.453Z,776.00
2023-01-03T12:29:04.324Z,782.00
2023-01-03T12:30:04.356Z,770.00